Arklow Spray — C6VK8 — position and weather

sailwx.info

Track history (hours):
 
Tides and Currents Weather Stations Pressure Air Temp Water Temp Dewpoint Dewpoint Depression Visibility Wind Speed Wind Dir Waves Ship Positions

Arklow Spray

Last reported at 2016-Jul-28 02:32 UTC. Time now 2016-Jul-28 02:59 UTC.
Position N 51°08' E 003°47'.

Length 90 m; draft 2.9 m.

Type: Cargo ship. MMSI: 309914000.

Date/timePositionNaut miles runAvg speedWind from/ knotsBaromVisibWave heightAir tempDewpointWater temp
2016-Jul-28 02:32N 51°08' E 003°47'0 0.0
2016-Jul-28 01:32N 51°08' E 003°47'0 0.0
2016-Jul-28 00:29N 51°08' E 003°47'0 0.0
2016-Jul-27 23:32N 51°08' E 003°47'0 0.0
2016-Jul-27 22:32N 51°08' E 003°47'0 0.0
2016-Jul-27 21:32N 51°08' E 003°47'0 0.0
2016-Jul-27 20:32N 51°08' E 003°47'0 0.0
2016-Jul-27 19:32N 51°08' E 003°47'0 0.0
2016-Jul-27 18:32N 51°08' E 003°47'0 0.0
2016-Jul-27 17:32N 51°08' E 003°47'0 0.0
2016-Jul-27 16:29N 51°08' E 003°47'0 0.0
2016-Jul-27 15:32N 51°08' E 003°47'0 0.0
2016-Jul-27 14:32N 51°08' E 003°47'0 0.0
2016-Jul-27 13:32N 51°08' E 003°47'0 0.0
2016-Jul-27 12:32N 51°08' E 003°47'0 0.0
2016-Jul-27 11:32N 51°08' E 003°47'1 1.2
2016-Jul-27 10:34N 51°09' E 003°47'2 2.0
2016-Jul-27 09:34N 51°11' E 003°48'5 4.8
2016-Jul-27 08:34N 51°16' E 003°50'4 4.0
2016-Jul-27 07:33N 51°20' E 003°49'7 7.2
2016-Jul-27 06:33N 51°25' E 003°58'6 6.0
2016-Jul-27 05:33N 51°22' E 004°06'7 7.0
2016-Jul-27 04:33N 51°19' E 004°16'7 7.1
2016-Jul-27 03:33N 51°14' E 004°24'8 7.9
2016-Jul-27 02:33N 51°07' E 004°18'1 1.2
2016-Jul-27 01:33N 51°06' E 004°19'3 2.9
2016-Jul-27 00:33N 51°04' E 004°22'4 3.8
2016-Jul-26 23:32N 50°60' E 004°22'4 3.7
2016-Jul-26 22:33N 50°57' E 004°25'0 0.1
2016-Jul-26 21:33N 50°57' E 004°25'0 0.0
2016-Jul-26 19:30N 50°57' E 004°25'0 0.0
2016-Jul-26 18:33N 50°57' E 004°25'0 0.0
2016-Jul-26 17:30N 50°57' E 004°25'0 0.0
2016-Jul-26 16:27N 50°57' E 004°25'0 0.0
2016-Jul-26 14:27N 50°57' E 004°25'0 0.0
2016-Jul-26 11:06N 50°57' E 004°25'0 0.0
2016-Jul-26 09:18N 50°57' E 004°25'0 0.0
2016-Jul-26 05:24N 50°57' E 004°25'0 0.0
2016-Jul-26 03:33N 50°57' E 004°25'0 0.0
2016-Jul-26 02:06N 50°57' E 004°25'0 0.0
2016-Jul-26 00:09N 50°57' E 004°25'0 0.0
2016-Jul-25 22:25N 50°57' E 004°25'3 4.0
2016-Jul-25 21:33N 50°60' E 004°22'3 2.8
2016-Jul-25 20:33N 51°03' E 004°22'4 3.8
2016-Jul-25 19:33N 51°06' E 004°19'2 2.3
2016-Jul-25 18:33N 51°08' E 004°20'6 6.2
2016-Jul-25 17:33N 51°14' E 004°22'1010.0
2016-Jul-25 16:33N 51°23' E 004°13'10 9.6
2016-Jul-25 15:33N 51°25' E 003°58'10 9.8
2016-Jul-25 14:33N 51°24' E 003°42'1111.2
2016-Jul-25 13:33N 51°25' E 003°24'1110.5
2016-Jul-25 12:32N 51°22' E 003°08'9 9.4
2016-Jul-25 11:33N 51°22' E 002°53'9 8.8
2016-Jul-25 10:32N 51°21' E 002°39'4 4.1
2016-Jul-25 09:32N 51°20' E 002°32'1 1.0
2016-Jul-25 08:32N 51°21' E 002°32'8 8.0
2016-Jul-25 07:33N 51°19' E 002°20'4 3.9
2016-Jul-25 06:33N 51°17' E 002°15'6 6.1
2016-Jul-25 05:33N 51°14' E 002°07'1313.1
2016-Jul-25 04:33N 51°07' E 001°49'1414.1
2016-Jul-25 03:33N 50°58' E 001°31'19410.8
2016-Jul-24 09:34N 49°43' W 003°09'1512.5
2016-Jul-24 08:20N 49°36' W 003°29'2212.2
2016-Jul-24 06:33N 49°24' W 003°58'3411.1
2016-Jul-24 03:32N 49°08' W 004°43'12 9.7
2016-Jul-24 02:16N 49°02' W 004°59'7 8.8
2016-Jul-24 01:31N 48°58' W 005°08'8 8.6
2016-Jul-24 00:33N 48°54' W 005°19'9 8.7
2016-Jul-23 23:33N 48°50' W 005°30'9 8.5
2016-Jul-23 22:34N 48°44' W 005°39'9 9.1
2016-Jul-23 21:32N 48°36' W 005°45'  
Track history (hours):
 
Tides and Currents Weather Stations Pressure Air Temp Water Temp Dewpoint Dewpoint Depression Visibility Wind Speed Wind Dir Waves Ship Positions

Arklow Spray

Last reported at 2016-Jul-28 02:32 UTC. Time now 2016-Jul-28 02:59 UTC.
Position N 51°08' E 003°47'.

Length 90 m; draft 2.9 m.

Type: Cargo ship. MMSI: 309914000.

Date/timePositionNaut miles runAvg speedWind from/ knotsBaromVisibWave heightAir tempDewpointWater temp
2016-Jul-28 02:32N 51°08' E 003°47'0 0.0
2016-Jul-28 01:32N 51°08' E 003°47'0 0.0
2016-Jul-28 00:29N 51°08' E 003°47'0 0.0
2016-Jul-27 23:32N 51°08' E 003°47'0 0.0
2016-Jul-27 22:32N 51°08' E 003°47'0 0.0
2016-Jul-27 21:32N 51°08' E 003°47'0 0.0
2016-Jul-27 20:32N 51°08' E 003°47'0 0.0
2016-Jul-27 19:32N 51°08' E 003°47'0 0.0
2016-Jul-27 18:32N 51°08' E 003°47'0 0.0
2016-Jul-27 17:32N 51°08' E 003°47'0 0.0
2016-Jul-27 16:29N 51°08' E 003°47'0 0.0
2016-Jul-27 15:32N 51°08' E 003°47'0 0.0
2016-Jul-27 14:32N 51°08' E 003°47'0 0.0
2016-Jul-27 13:32N 51°08' E 003°47'0 0.0
2016-Jul-27 12:32N 51°08' E 003°47'0 0.0
2016-Jul-27 11:32N 51°08' E 003°47'1 1.2
2016-Jul-27 10:34N 51°09' E 003°47'2 2.0
2016-Jul-27 09:34N 51°11' E 003°48'5 4.8
2016-Jul-27 08:34N 51°16' E 003°50'4 4.0
2016-Jul-27 07:33N 51°20' E 003°49'7 7.2
2016-Jul-27 06:33N 51°25' E 003°58'6 6.0
2016-Jul-27 05:33N 51°22' E 004°06'7 7.0
2016-Jul-27 04:33N 51°19' E 004°16'7 7.1
2016-Jul-27 03:33N 51°14' E 004°24'8 7.9
2016-Jul-27 02:33N 51°07' E 004°18'1 1.2
2016-Jul-27 01:33N 51°06' E 004°19'3 2.9
2016-Jul-27 00:33N 51°04' E 004°22'4 3.8
2016-Jul-26 23:32N 50°60' E 004°22'4 3.7
2016-Jul-26 22:33N 50°57' E 004°25'0 0.1
2016-Jul-26 21:33N 50°57' E 004°25'0 0.0
2016-Jul-26 19:30N 50°57' E 004°25'0 0.0
2016-Jul-26 18:33N 50°57' E 004°25'0 0.0
2016-Jul-26 17:30N 50°57' E 004°25'0 0.0
2016-Jul-26 16:27N 50°57' E 004°25'0 0.0
2016-Jul-26 14:27N 50°57' E 004°25'0 0.0
2016-Jul-26 11:06N 50°57' E 004°25'0 0.0
2016-Jul-26 09:18N 50°57' E 004°25'0 0.0
2016-Jul-26 05:24N 50°57' E 004°25'0 0.0
2016-Jul-26 03:33N 50°57' E 004°25'0 0.0
2016-Jul-26 02:06N 50°57' E 004°25'0 0.0
2016-Jul-26 00:09N 50°57' E 004°25'0 0.0
2016-Jul-25 22:25N 50°57' E 004°25'3 4.0
2016-Jul-25 21:33N 50°60' E 004°22'3 2.8
2016-Jul-25 20:33N 51°03' E 004°22'4 3.8
2016-Jul-25 19:33N 51°06' E 004°19'2 2.3
2016-Jul-25 18:33N 51°08' E 004°20'6 6.2
2016-Jul-25 17:33N 51°14' E 004°22'1010.0
2016-Jul-25 16:33N 51°23' E 004°13'10 9.6
2016-Jul-25 15:33N 51°25' E 003°58'10 9.8
2016-Jul-25 14:33N 51°24' E 003°42'1111.2
2016-Jul-25 13:33N 51°25' E 003°24'1110.5
2016-Jul-25 12:32N 51°22' E 003°08'9 9.4
2016-Jul-25 11:33N 51°22' E 002°53'9 8.8
2016-Jul-25 10:32N 51°21' E 002°39'4 4.1
2016-Jul-25 09:32N 51°20' E 002°32'1 1.0
2016-Jul-25 08:32N 51°21' E 002°32'8 8.0
2016-Jul-25 07:33N 51°19' E 002°20'4 3.9
2016-Jul-25 06:33N 51°17' E 002°15'6 6.1
2016-Jul-25 05:33N 51°14' E 002°07'1313.1
2016-Jul-25 04:33N 51°07' E 001°49'1414.1
2016-Jul-25 03:33N 50°58' E 001°31'19410.8
2016-Jul-24 09:34N 49°43' W 003°09'1512.5
2016-Jul-24 08:20N 49°36' W 003°29'2212.2
2016-Jul-24 06:33N 49°24' W 003°58'3411.1
2016-Jul-24 03:32N 49°08' W 004°43'12 9.7
2016-Jul-24 02:16N 49°02' W 004°59'7 8.8
2016-Jul-24 01:31N 48°58' W 005°08'8 8.6
2016-Jul-24 00:33N 48°54' W 005°19'9 8.7
2016-Jul-23 23:33N 48°50' W 005°30'9 8.5
2016-Jul-23 22:34N 48°44' W 005°39'9 9.1
2016-Jul-23 21:32N 48°36' W 005°45'  

Dump ship's entire track history